sensor_id;sensor_type;location;lat;lon;timestamp;pressure;altitude;pressure_sealevel;temperature;humidity
74635;BME280;63140;56.306;43.984;2022-10-04T00:02:50;99260.78;;;10.86;72.28
74635;BME280;63140;56.306;43.984;2022-10-04T00:05:22;99255.88;;;10.85;72.50
74635;BME280;63140;56.306;43.984;2022-10-04T00:07:52;99250.56;;;10.81;72.36
74635;BME280;63140;56.306;43.984;2022-10-04T00:10:38;99249.81;;;10.77;72.75
74635;BME280;63140;56.306;43.984;2022-10-04T00:13:06;99255.53;;;10.75;72.73
74635;BME280;63140;56.306;43.984;2022-10-04T00:15:40;99263.50;;;10.75;72.57
74635;BME280;63140;56.306;43.984;2022-10-04T00:18:28;99262.75;;;10.75;72.76
74635;BME280;63140;56.306;43.984;2022-10-04T00:20:57;99259.34;;;10.74;72.84
74635;BME280;63140;56.306;43.984;2022-10-04T00:26:12;99253.66;;;10.72;73.05
74635;BME280;63140;56.306;43.984;2022-10-04T00:28:45;99260.47;;;10.70;72.88
74635;BME280;63140;56.306;43.984;2022-10-04T00:31:12;99257.06;;;10.69;73.15
74635;BME280;63140;56.306;43.984;2022-10-04T00:33:41;99258.22;;;10.68;73.17
74635;BME280;63140;56.306;43.984;2022-10-04T00:39:13;99253.69;;;10.65;73.59
74635;BME280;63140;56.306;43.984;2022-10-04T00:44:16;99263.56;;;10.61;73.65
74635;BME280;63140;56.306;43.984;2022-10-04T00:46:44;99259.78;;;10.59;73.83
74635;BME280;63140;56.306;43.984;2022-10-04T00:49:12;99269.66;;;10.58;73.90
74635;BME280;63140;56.306;43.984;2022-10-04T00:51:50;99262.09;;;10.53;74.18
74635;BME280;63140;56.306;43.984;2022-10-04T00:54:25;99265.13;;;10.51;74.47
74635;BME280;63140;56.306;43.984;2022-10-04T00:56:57;99260.22;;;10.50;74.66
74635;BME280;63140;56.306;43.984;2022-10-04T00:59:37;99261.75;;;10.44;74.84
74635;BME280;63140;56.306;43.984;2022-10-04T01:04:48;99247.00;;;10.39;75.35
74635;BME280;63140;56.306;43.984;2022-10-04T01:07:20;99253.06;;;10.40;75.07
74635;BME280;63140;56.306;43.984;2022-10-04T01:09:54;99246.22;;;10.39;75.33
74635;BME280;63140;56.306;43.984;2022-10-04T01:23:40;99252.72;;;10.27;76.24
74635;BME280;63140;56.306;43.984;2022-10-04T01:29:18;99253.47;;;10.20;76.50
74635;BME280;63140;56.306;43.984;2022-10-04T01:31:51;99260.69;;;10.16;76.74
74635;BME280;63140;56.306;43.984;2022-10-04T01:34:23;99256.91;;;10.10;77.19
74635;BME280;63140;56.306;43.984;2022-10-04T01:36:51;99256.94;;;10.07;77.25
74635;BME280;63140;56.306;43.984;2022-10-04T01:39:21;99262.25;;;10.03;77.47
74635;BME280;63140;56.306;43.984;2022-10-04T01:50:03;99263.03;;;9.93;78.15
74635;BME280;63140;56.306;43.984;2022-10-04T01:52:53;99266.84;;;9.92;78.50
74635;BME280;63140;56.306;43.984;2022-10-04T01:55:40;99272.16;;;9.88;78.83
74635;BME280;63140;56.306;43.984;2022-10-04T01:58:12;99266.09;;;9.84;79.03
74635;BME280;63140;56.306;43.984;2022-10-04T02:00:55;99263.06;;;9.82;78.93
74635;BME280;63140;56.306;43.984;2022-10-04T02:03:39;99272.91;;;9.82;79.25
74635;BME280;63140;56.306;43.984;2022-10-04T02:06:08;99276.72;;;9.80;79.25
74635;BME280;63140;56.306;43.984;2022-10-04T02:08:37;99269.50;;;9.77;79.52
74635;BME280;63140;56.306;43.984;2022-10-04T02:11:05;99269.91;;;9.76;79.58
74635;BME280;63140;56.306;43.984;2022-10-04T02:13:36;99277.47;;;9.74;80.21
74635;BME280;63140;56.306;43.984;2022-10-04T02:16:07;99269.91;;;9.69;80.28
74635;BME280;63140;56.306;43.984;2022-10-04T02:18:37;99271.44;;;9.66;80.27
74635;BME280;63140;56.306;43.984;2022-10-04T02:21:05;99273.31;;;9.69;80.42
74635;BME280;63140;56.306;43.984;2022-10-04T02:23:33;99279.75;;;9.68;80.79
74635;BME280;63140;56.306;43.984;2022-10-04T02:26:04;99278.25;;;9.67;81.05
74635;BME280;63140;56.306;43.984;2022-10-04T02:28:32;99286.59;;;9.66;81.14
74635;BME280;63140;56.306;43.984;2022-10-04T02:30:58;99283.19;;;9.65;81.80
74635;BME280;63140;56.306;43.984;2022-10-04T02:33:45;99285.84;;;9.65;82.05
74635;BME280;63140;56.306;43.984;2022-10-04T02:36:13;99288.84;;;9.67;81.99
74635;BME280;63140;56.306;43.984;2022-10-04T02:38:53;99285.03;;;9.68;81.97
74635;BME280;63140;56.306;43.984;2022-10-04T02:41:24;99285.81;;;9.69;81.54
74635;BME280;63140;56.306;43.984;2022-10-04T02:57:04;99283.53;;;9.67;82.10
74635;BME280;63140;56.306;43.984;2022-10-04T02:59:31;99291.88;;;9.69;82.01
74635;BME280;63140;56.306;43.984;2022-10-04T03:01:59;99298.69;;;9.70;82.28
74635;BME280;63140;56.306;43.984;2022-10-04T03:04:37;99299.44;;;9.71;82.46
74635;BME280;63140;56.306;43.984;2022-10-04T03:07:07;99299.84;;;9.73;82.22
74635;BME280;63140;56.306;43.984;2022-10-04T03:09:35;99310.03;;;9.74;82.39
74635;BME280;63140;56.306;43.984;2022-10-04T03:12:03;99314.19;;;9.79;82.38
74635;BME280;63140;56.306;43.984;2022-10-04T03:14:30;99315.34;;;9.82;82.19
74635;BME280;63140;56.306;43.984;2022-10-04T03:16:59;99314.59;;;9.85;82.19
74635;BME280;63140;56.306;43.984;2022-10-04T03:19:28;99317.97;;;9.89;82.35
74635;BME280;63140;56.306;43.984;2022-10-04T03:22:16;99308.88;;;9.86;82.36
74635;BME280;63140;56.306;43.984;2022-10-04T03:24:49;99317.22;;;9.88;82.32
74635;BME280;63140;56.306;43.984;2022-10-04T03:27:21;99326.69;;;9.89;82.63
74635;BME280;63140;56.306;43.984;2022-10-04T03:29:49;99323.69;;;9.91;82.72
74635;BME280;63140;56.306;43.984;2022-10-04T03:32:16;99332.00;;;9.93;82.55
74635;BME280;63140;56.306;43.984;2022-10-04T03:35:04;99335.78;;;9.95;82.75
74635;BME280;63140;56.306;43.984;2022-10-04T03:37:35;99336.53;;;9.96;82.61
74635;BME280;63140;56.306;43.984;2022-10-04T03:40:02;99335.03;;;9.98;82.62
74635;BME280;63140;56.306;43.984;2022-10-04T03:42:35;99335.41;;;10.04;82.63
74635;BME280;63140;56.306;43.984;2022-10-04T03:45:05;99328.19;;;10.08;82.44
74635;BME280;63140;56.306;43.984;2022-10-04T03:47:35;99337.25;;;10.14;82.56
74635;BME280;63140;56.306;43.984;2022-10-04T03:50:24;99351.31;;;10.18;82.44
74635;BME280;63140;56.306;43.984;2022-10-04T03:52:57;99348.66;;;10.18;82.66
74635;BME280;63140;56.306;43.984;2022-10-04T03:55:30;99352.81;;;10.23;82.23
74635;BME280;63140;56.306;43.984;2022-10-04T03:57:58;99354.31;;;10.27;82.13
74635;BME280;63140;56.306;43.984;2022-10-04T04:00:24;99357.72;;;10.32;82.17
74635;BME280;63140;56.306;43.984;2022-10-04T04:03:00;99353.19;;;10.32;81.97
74635;BME280;63140;56.306;43.984;2022-10-04T04:05:35;99354.72;;;10.30;82.00
74635;BME280;63140;56.306;43.984;2022-10-04T04:08:31;99374.41;;;10.25;82.22
74635;BME280;63140;56.306;43.984;2022-10-04T04:11:00;99374.81;;;10.31;82.07
74635;BME280;63140;56.306;43.984;2022-10-04T04:13:42;99375.19;;;10.33;82.05
74635;BME280;63140;56.306;43.984;2022-10-04T04:16:11;99382.00;;;10.34;81.93
74635;BME280;63140;56.306;43.984;2022-10-04T04:18:40;99372.88;;;10.35;81.81
74635;BME280;63140;56.306;43.984;2022-10-04T04:21:08;99376.69;;;10.34;81.63
74635;BME280;63140;56.306;43.984;2022-10-04T04:23:43;99382.75;;;10.31;81.77
74635;BME280;63140;56.306;43.984;2022-10-04T04:33:52;99378.94;;;10.39;81.24
74635;BME280;63140;56.306;43.984;2022-10-04T04:36:21;99378.19;;;10.42;81.11
74635;BME280;63140;56.306;43.984;2022-10-04T04:38:46;99389.19;;;10.44;81.09
74635;BME280;63140;56.306;43.984;2022-10-04T04:41:32;99385.75;;;10.47;81.07
74635;BME280;63140;56.306;43.984;2022-10-04T04:44:02;99383.47;;;10.49;80.84
74635;BME280;63140;56.306;43.984;2022-10-04T04:46:29;99380.78;;;10.56;80.86
74635;BME280;63140;56.306;43.984;2022-10-04T04:49:02;99380.41;;;10.61;80.71
74635;BME280;63140;56.306;43.984;2022-10-04T04:51:31;99389.50;;;10.67;80.64
74635;BME280;63140;56.306;43.984;2022-10-04T04:53:59;99378.88;;;10.67;80.47
74635;BME280;63140;56.306;43.984;2022-10-04T04:56:27;99393.25;;;10.73;80.45
74635;BME280;63140;56.306;43.984;2022-10-04T04:58:56;99386.06;;;10.78;80.13
74635;BME280;63140;56.306;43.984;2022-10-04T05:01:32;99380.34;;;10.75;80.10
74635;BME280;63140;56.306;43.984;2022-10-04T05:04:04;99387.19;;;10.77;80.10
74635;BME280;63140;56.306;43.984;2022-10-04T05:06:31;99390.22;;;10.79;80.18
74635;BME280;63140;56.306;43.984;2022-10-04T05:08:57;99384.91;;;10.75;80.37
74635;BME280;63140;56.306;43.984;2022-10-04T05:11:27;99391.00;;;10.75;80.88
74635;BME280;63140;56.306;43.984;2022-10-04T05:16:43;99389.47;;;10.74;81.54
74635;BME280;63140;56.306;43.984;2022-10-04T05:19:16;99399.34;;;10.78;80.89
74635;BME280;63140;56.306;43.984;2022-10-04T05:21:47;99393.22;;;10.81;80.75
74635;BME280;63140;56.306;43.984;2022-10-04T05:24:32;99397.03;;;10.83;80.75
74635;BME280;63140;56.306;43.984;2022-10-04T05:27:02;99397.75;;;10.87;80.92
74635;BME280;63140;56.306;43.984;2022-10-04T05:29:33;99399.63;;;10.94;80.72
74635;BME280;63140;56.306;43.984;2022-10-04T05:34:41;99406.06;;;11.04;80.73
74635;BME280;63140;56.306;43.984;2022-10-04T05:40:02;99401.41;;;11.18;80.30
74635;BME280;63140;56.306;43.984;2022-10-04T05:42:39;99402.16;;;11.22;80.33
74635;BME280;63140;56.306;43.984;2022-10-04T05:45:19;99405.91;;;11.29;79.95
74635;BME280;63140;56.306;43.984;2022-10-04T05:47:48;99405.88;;;11.36;79.85
74635;BME280;63140;56.306;43.984;2022-10-04T05:50:33;99409.22;;;11.47;79.58
74635;BME280;63140;56.306;43.984;2022-10-04T05:53:24;99411.84;;;11.54;79.26
74635;BME280;63140;56.306;43.984;2022-10-04T06:01:22;99414.00;;;11.74;78.87
74635;BME280;63140;56.306;43.984;2022-10-04T06:06:55;99402.91;;;11.82;78.68
74635;BME280;63140;56.306;43.984;2022-10-04T06:09:35;99407.88;;;11.84;78.48
74635;BME280;63140;56.306;43.984;2022-10-04T06:12:15;99401.78;;;11.87;78.66
74635;BME280;63140;56.306;43.984;2022-10-04T06:15:21;99407.06;;;11.90;78.58
74635;BME280;63140;56.306;43.984;2022-10-04T06:23:27;99420.56;;;12.10;78.10
74635;BME280;63140;56.306;43.984;2022-10-04T06:26:08;99416.75;;;12.15;77.83
74635;BME280;63140;56.306;43.984;2022-10-04T06:28:45;99416.69;;;12.22;77.60
74635;BME280;63140;56.306;43.984;2022-10-04T06:31:19;99423.84;;;12.29;77.65
74635;BME280;63140;56.306;43.984;2022-10-04T06:36:49;99418.00;;;12.41;77.26
74635;BME280;63140;56.306;43.984;2022-10-04T06:53:43;99416.91;;;12.73;76.01
74635;BME280;63140;56.306;43.984;2022-10-04T06:56:30;99418.75;;;12.79;75.42
74635;BME280;63140;56.306;43.984;2022-10-04T06:59:31;99415.63;;;12.84;75.20
74635;BME280;63140;56.306;43.984;2022-10-04T07:05:04;99417.47;;;12.91;74.42
74635;BME280;63140;56.306;43.984;2022-10-04T07:07:41;99424.66;;;12.94;74.36
74635;BME280;63140;56.306;43.984;2022-10-04T07:18:13;99428.72;;;13.06;74.15
74635;BME280;63140;56.306;43.984;2022-10-04T07:20:45;99419.50;;;13.10;73.78
74635;BME280;63140;56.306;43.984;2022-10-04T07:23:31;99415.25;;;13.17;73.68
74635;BME280;63140;56.306;43.984;2022-10-04T07:26:06;99417.47;;;13.22;73.45
74635;BME280;63140;56.306;43.984;2022-10-04T07:28:41;99427.00;;;13.19;73.05
74635;BME280;63140;56.306;43.984;2022-10-04T07:31:29;99420.13;;;13.22;73.17
74635;BME280;63140;56.306;43.984;2022-10-04T07:37:00;99421.97;;;13.28;73.28
74635;BME280;63140;56.306;43.984;2022-10-04T07:39:52;99426.00;;;13.40;73.25
74635;BME280;63140;56.306;43.984;2022-10-04T07:45:20;99419.56;;;13.65;72.50
74635;BME280;63140;56.306;43.984;2022-10-04T07:47:46;99424.72;;;13.75;72.41
74635;BME280;63140;56.306;43.984;2022-10-04T07:53:01;99432.69;;;14.02;71.60
74635;BME280;63140;56.306;43.984;2022-10-04T07:55:51;99430.59;;;14.14;71.06
74635;BME280;63140;56.306;43.984;2022-10-04T07:58:22;99433.03;;;14.28;70.73
74635;BME280;63140;56.306;43.984;2022-10-04T08:01:09;99426.88;;;14.31;69.81
74635;BME280;63140;56.306;43.984;2022-10-04T08:07:51;99429.97;;;14.49;69.50
74635;BME280;63140;56.306;43.984;2022-10-04T08:10:24;99430.91;;;14.63;69.52
74635;BME280;63140;56.306;43.984;2022-10-04T08:16:36;99433.22;;;15.00;68.80
74635;BME280;63140;56.306;43.984;2022-10-04T08:22:02;99437.13;;;15.16;67.76
74635;BME280;63140;56.306;43.984;2022-10-04T08:24:35;99435.16;;;15.20;67.43
74635;BME280;63140;56.306;43.984;2022-10-04T08:30:22;99430.47;;;15.24;67.45
74635;BME280;63140;56.306;43.984;2022-10-04T08:33:17;99434.69;;;15.41;66.68
74635;BME280;63140;56.306;43.984;2022-10-04T08:35:52;99442.03;;;15.54;66.71
74635;BME280;63140;56.306;43.984;2022-10-04T08:41:53;99443.38;;;15.62;65.96
74635;BME280;63140;56.306;43.984;2022-10-04T08:56:35;99450.78;;;16.07;64.21
74635;BME280;63140;56.306;43.984;2022-10-04T09:05:09;99448.84;;;16.23;63.34
74635;BME280;63140;56.306;43.984;2022-10-04T09:08:09;99450.94;;;16.32;63.56
74635;BME280;63140;56.306;43.984;2022-10-04T09:18:56;99431.41;;;16.32;62.92
74635;BME280;63140;56.306;43.984;2022-10-04T09:30:19;99437.91;;;16.02;63.97
74635;BME280;63140;56.306;43.984;2022-10-04T09:36:01;99438.91;;;16.08;63.98
74635;BME280;63140;56.306;43.984;2022-10-04T09:45:25;99433.94;;;16.22;63.18
74635;BME280;63140;56.306;43.984;2022-10-04T09:48:19;99433.16;;;16.38;62.56
74635;BME280;63140;56.306;43.984;2022-10-04T09:59:09;99442.16;;;18.05;60.33
74635;BME280;63140;56.306;43.984;2022-10-04T10:09:53;99424.03;;;18.97;56.24
74635;BME280;63140;56.306;43.984;2022-10-04T10:13:12;99422.81;;;18.89;56.10
74635;BME280;63140;56.306;43.984;2022-10-04T10:30:21;99410.38;;;27.34;39.21
74635;BME280;63140;56.306;43.984;2022-10-04T10:38:48;99419.81;;;30.99;34.39
74635;BME280;63140;56.306;43.984;2022-10-04T10:47:17;99409.41;;;27.15;38.41
74635;BME280;63140;56.306;43.984;2022-10-04T10:50:05;99411.41;;;26.86;39.40
74635;BME280;63140;56.306;43.984;2022-10-04T11:15:45;99416.72;;;27.65;37.88
74635;BME280;63140;56.306;43.984;2022-10-04T11:30:11;99424.81;;;23.80;42.60
74635;BME280;63140;56.306;43.984;2022-10-04T11:35:45;99422.22;;;21.03;47.68
74635;BME280;63140;56.306;43.984;2022-10-04T11:41:28;99415.31;;;19.55;51.18
74635;BME280;63140;56.306;43.984;2022-10-04T11:47:11;99424.91;;;19.25;52.31
74635;BME280;63140;56.306;43.984;2022-10-04T11:50:02;99420.94;;;19.07;52.92
74635;BME280;63140;56.306;43.984;2022-10-04T11:57:56;99422.75;;;18.79;54.11
74635;BME280;63140;56.306;43.984;2022-10-04T12:00:26;99414.59;;;18.92;53.74
74635;BME280;63140;56.306;43.984;2022-10-04T12:11:20;99407.34;;;18.58;54.95
74635;BME280;63140;56.306;43.984;2022-10-04T12:14:09;99398.50;;;18.35;55.43
74635;BME280;63140;56.306;43.984;2022-10-04T12:37:13;99386.88;;;21.97;48.86
74635;BME280;63140;56.306;43.984;2022-10-04T12:39:51;99386.91;;;23.30;45.62
74635;BME280;63140;56.306;43.984;2022-10-04T12:45:21;99392.13;;;21.19;48.93
74635;BME280;63140;56.306;43.984;2022-10-04T12:50:25;99380.97;;;19.87;51.84
74635;BME280;63140;56.306;43.984;2022-10-04T13:12:40;99370.25;;;17.23;59.40
74635;BME280;63140;56.306;43.984;2022-10-04T13:23:44;99370.31;;;16.68;61.06
74635;BME280;63140;56.306;43.984;2022-10-04T13:34:39;99369.19;;;15.95;63.70
74635;BME280;63140;56.306;43.984;2022-10-04T13:40:19;99364.28;;;15.77;64.55
74635;BME280;63140;56.306;43.984;2022-10-04T13:45:58;99369.72;;;15.73;64.59
74635;BME280;63140;56.306;43.984;2022-10-04T13:48:49;99376.00;;;15.67;65.08
74635;BME280;63140;56.306;43.984;2022-10-04T13:57:23;99373.53;;;15.23;66.64
74635;BME280;63140;56.306;43.984;2022-10-04T14:00:04;99378.63;;;15.18;66.58
74635;BME280;63140;56.306;43.984;2022-10-04T14:05:50;99375.22;;;14.97;67.94
74635;BME280;63140;56.306;43.984;2022-10-04T14:08:48;99378.41;;;14.92;68.18
74635;BME280;63140;56.306;43.984;2022-10-04T14:17:31;99388.06;;;14.66;70.07
74635;BME280;63140;56.306;43.984;2022-10-04T14:20:28;99385.97;;;14.58;70.12
74635;BME280;63140;56.306;43.984;2022-10-04T14:23:07;99372.38;;;14.48;70.91
74635;BME280;63140;56.306;43.984;2022-10-04T14:48:00;99384.50;;;14.09;72.22
74635;BME280;63140;56.306;43.984;2022-10-04T15:05:27;99399.16;;;14.01;73.48
74635;BME280;63140;56.306;43.984;2022-10-04T15:11:16;99395.44;;;13.95;73.38
74635;BME280;63140;56.306;43.984;2022-10-04T15:13:57;99395.06;;;13.93;73.79
74635;BME280;63140;56.306;43.984;2022-10-04T15:16:45;99384.81;;;13.92;73.66
74635;BME280;63140;56.306;43.984;2022-10-04T15:24:50;99393.56;;;13.69;74.56
74635;BME280;63140;56.306;43.984;2022-10-04T15:30:18;99385.34;;;13.59;74.83
74635;BME280;63140;56.306;43.984;2022-10-04T15:36:08;99391.94;;;13.51;75.05
74635;BME280;63140;56.306;43.984;2022-10-04T15:38:53;99381.59;;;13.53;74.79
74635;BME280;63140;56.306;43.984;2022-10-04T15:41:41;99392.34;;;13.50;74.78
74635;BME280;63140;56.306;43.984;2022-10-04T15:47:08;99386.00;;;13.40;74.90
74635;BME280;63140;56.306;43.984;2022-10-04T15:52:52;99387.34;;;13.25;75.55
74635;BME280;63140;56.306;43.984;2022-10-04T15:55:51;99388.22;;;13.14;75.85
74635;BME280;63140;56.306;43.984;2022-10-04T15:58:29;99383.66;;;13.15;75.62
74635;BME280;63140;56.306;43.984;2022-10-04T16:06:54;99391.00;;;13.07;75.96
74635;BME280;63140;56.306;43.984;2022-10-04T16:12:39;99398.28;;;13.03;76.01
74635;BME280;63140;56.306;43.984;2022-10-04T16:25:52;99394.72;;;12.83;76.18
74635;BME280;63140;56.306;43.984;2022-10-04T16:34:00;99384.16;;;12.76;76.19
74635;BME280;63140;56.306;43.984;2022-10-04T16:36:44;99403.25;;;12.71;75.88
74635;BME280;63140;56.306;43.984;2022-10-04T16:39:11;99404.47;;;12.62;76.09
74635;BME280;63140;56.306;43.984;2022-10-04T16:42:14;99395.38;;;12.56;76.34
74635;BME280;63140;56.306;43.984;2022-10-04T16:44:52;99400.00;;;12.52;76.32
74635;BME280;63140;56.306;43.984;2022-10-04T16:49:56;99406.22;;;12.38;76.91
74635;BME280;63140;56.306;43.984;2022-10-04T16:52:42;99407.44;;;12.34;76.95
74635;BME280;63140;56.306;43.984;2022-10-04T17:17:35;99387.91;;;12.06;77.11
74635;BME280;63140;56.306;43.984;2022-10-04T17:20:28;99390.22;;;12.04;77.01
74635;BME280;63140;56.306;43.984;2022-10-04T17:28:57;99392.13;;;12.00;77.03
74635;BME280;63140;56.306;43.984;2022-10-04T17:39:24;99388.75;;;11.96;77.23
74635;BME280;63140;56.306;43.984;2022-10-04T17:42:02;99391.78;;;11.98;76.95
74635;BME280;63140;56.306;43.984;2022-10-04T17:45:02;99399.78;;;11.98;76.94
74635;BME280;63140;56.306;43.984;2022-10-04T17:47:53;99401.69;;;11.98;76.86
74635;BME280;63140;56.306;43.984;2022-10-04T17:50:53;99394.81;;;11.97;76.88
74635;BME280;63140;56.306;43.984;2022-10-04T17:53:45;99403.56;;;12.01;76.50
74635;BME280;63140;56.306;43.984;2022-10-04T17:56:43;99406.25;;;11.97;76.74
74635;BME280;63140;56.306;43.984;2022-10-04T17:59:15;99395.59;;;11.97;76.75
74635;BME280;63140;56.306;43.984;2022-10-04T18:01:50;99394.06;;;11.96;76.75
74635;BME280;63140;56.306;43.984;2022-10-04T18:04:23;99400.13;;;12.00;76.48
74635;BME280;63140;56.306;43.984;2022-10-04T18:06:57;99391.38;;;12.00;76.68
74635;BME280;63140;56.306;43.984;2022-10-04T18:18:28;99397.09;;;12.02;76.40
74635;BME280;63140;56.306;43.984;2022-10-04T18:23:26;99387.19;;;12.02;76.61
74635;BME280;63140;56.306;43.984;2022-10-04T18:26:05;99376.91;;;12.04;76.95
74635;BME280;63140;56.306;43.984;2022-10-04T18:28:33;99378.75;;;12.07;76.57
74635;BME280;63140;56.306;43.984;2022-10-04T18:38:42;99366.47;;;12.21;76.10
74635;BME280;63140;56.306;43.984;2022-10-04T18:41:16;99369.50;;;12.23;76.26
74635;BME280;63140;56.306;43.984;2022-10-04T18:46:24;99359.72;;;12.12;75.91
74635;BME280;63140;56.306;43.984;2022-10-04T18:48:51;99347.56;;;12.11;75.99
74635;BME280;63140;56.306;43.984;2022-10-04T18:57:25;99334.69;;;12.06;76.19
74635;BME280;63140;56.306;43.984;2022-10-04T19:00:13;99343.03;;;12.08;76.36
74635;BME280;63140;56.306;43.984;2022-10-04T19:05:47;99359.75;;;12.09;75.90
74635;BME280;63140;56.306;43.984;2022-10-04T19:11:02;99371.16;;;12.09;76.15
74635;BME280;63140;56.306;43.984;2022-10-04T19:13:41;99347.94;;;12.10;76.18
74635;BME280;63140;56.306;43.984;2022-10-04T19:16:33;99338.44;;;12.12;75.96
74635;BME280;63140;56.306;43.984;2022-10-04T19:19:26;99339.97;;;12.10;76.06
74635;BME280;63140;56.306;43.984;2022-10-04T19:27:29;99345.38;;;11.99;76.26
74635;BME280;63140;56.306;43.984;2022-10-04T19:30:04;99358.34;;;11.97;76.10
74635;BME280;63140;56.306;43.984;2022-10-04T19:41:35;99361.44;;;11.92;75.89
74635;BME280;63140;56.306;43.984;2022-10-04T19:49:51;99331.84;;;11.79;75.75
74635;BME280;63140;56.306;43.984;2022-10-04T19:55:18;99322.06;;;11.73;75.62
74635;BME280;63140;56.306;43.984;2022-10-04T19:57:49;99330.44;;;11.67;75.65
74635;BME280;63140;56.306;43.984;2022-10-04T20:00:16;99312.97;;;11.66;75.64
74635;BME280;63140;56.306;43.984;2022-10-04T20:02:44;99316.84;;;11.58;75.87
74635;BME280;63140;56.306;43.984;2022-10-04T20:05:15;99313.81;;;11.56;75.71
74635;BME280;63140;56.306;43.984;2022-10-04T20:07:48;99297.13;;;11.52;76.03
74635;BME280;63140;56.306;43.984;2022-10-04T20:10:22;99309.00;;;11.40;76.02
74635;BME280;63140;56.306;43.984;2022-10-04T20:13:28;99328.38;;;11.41;76.05
74635;BME280;63140;56.306;43.984;2022-10-04T20:15:57;99344.69;;;11.43;76.31
74635;BME280;63140;56.306;43.984;2022-10-04T20:26:36;99332.00;;;11.61;75.83
74635;BME280;63140;56.306;43.984;2022-10-04T20:29:56;99341.50;;;11.62;75.57
74635;BME280;63140;56.306;43.984;2022-10-04T20:34:52;99339.19;;;11.64;75.54
74635;BME280;63140;56.306;43.984;2022-10-04T20:37:18;99316.78;;;11.65;75.19
74635;BME280;63140;56.306;43.984;2022-10-04T20:42:33;99303.91;;;11.60;74.77
74635;BME280;63140;56.306;43.984;2022-10-04T20:50:35;99326.00;;;11.50;74.97
74635;BME280;63140;56.306;43.984;2022-10-04T20:53:11;99336.28;;;11.52;75.09
74635;BME280;63140;56.306;43.984;2022-10-04T20:55:38;99340.44;;;11.53;75.07
74635;BME280;63140;56.306;43.984;2022-10-04T20:58:29;99332.84;;;11.51;75.11
74635;BME280;63140;56.306;43.984;2022-10-04T21:01:21;99337.03;;;11.52;75.13
74635;BME280;63140;56.306;43.984;2022-10-04T21:04:25;99324.84;;;11.58;75.19
74635;BME280;63140;56.306;43.984;2022-10-04T21:09:27;99313.75;;;11.63;74.93
74635;BME280;63140;56.306;43.984;2022-10-04T21:11:54;99313.00;;;11.63;74.93
74635;BME280;63140;56.306;43.984;2022-10-04T21:14:25;99318.28;;;11.66;74.92
74635;BME280;63140;56.306;43.984;2022-10-04T21:16:52;99309.16;;;11.67;74.75
74635;BME280;63140;56.306;43.984;2022-10-04T21:27:26;99293.91;;;11.71;74.62
74635;BME280;63140;56.306;43.984;2022-10-04T21:29:51;99302.72;;;11.65;74.70
74635;BME280;63140;56.306;43.984;2022-10-04T21:32:20;99298.19;;;11.62;74.57
74635;BME280;63140;56.306;43.984;2022-10-04T21:34:46;99293.25;;;11.60;74.69
74635;BME280;63140;56.306;43.984;2022-10-04T21:37:12;99279.97;;;11.60;74.66
74635;BME280;63140;56.306;43.984;2022-10-04T21:39:38;99295.56;;;11.58;74.68
74635;BME280;63140;56.306;43.984;2022-10-04T21:42:04;99282.28;;;11.58;74.91
74635;BME280;63140;56.306;43.984;2022-10-04T21:44:30;99287.94;;;11.60;74.84
74635;BME280;63140;56.306;43.984;2022-10-04T21:46:56;99292.09;;;11.61;74.67
74635;BME280;63140;56.306;43.984;2022-10-04T21:49:21;99287.94;;;11.60;74.66
74635;BME280;63140;56.306;43.984;2022-10-04T21:51:47;99284.19;;;11.54;74.70
74635;BME280;63140;56.306;43.984;2022-10-04T21:54:13;99267.47;;;11.54;74.83
74635;BME280;63140;56.306;43.984;2022-10-04T21:56:39;99287.63;;;11.51;74.78
74635;BME280;63140;56.306;43.984;2022-10-04T21:59:04;99291.03;;;11.55;74.91
74635;BME280;63140;56.306;43.984;2022-10-04T22:01:30;99285.72;;;11.55;75.06
74635;BME280;63140;56.306;43.984;2022-10-04T22:03:56;99275.81;;;11.59;74.69
74635;BME280;63140;56.306;43.984;2022-10-04T22:06:22;99281.13;;;11.59;74.67
74635;BME280;63140;56.306;43.984;2022-10-04T22:08:48;99284.94;;;11.58;74.73
74635;BME280;63140;56.306;43.984;2022-10-04T22:11:13;99286.44;;;11.59;74.77
74635;BME280;63140;56.306;43.984;2022-10-04T22:13:39;99293.97;;;11.64;74.74
74635;BME280;63140;56.306;43.984;2022-10-04T22:16:06;99270.03;;;11.64;74.58
74635;BME280;63140;56.306;43.984;2022-10-04T22:18:33;99257.13;;;11.66;74.51
74635;BME280;63140;56.306;43.984;2022-10-04T22:20:59;99262.78;;;11.68;74.61
74635;BME280;63140;56.306;43.984;2022-10-04T22:23:27;99262.75;;;11.72;74.35
74635;BME280;63140;56.306;43.984;2022-10-04T22:25:54;99263.88;;;11.75;74.48
74635;BME280;63140;56.306;43.984;2022-10-04T22:28:23;99254.38;;;11.74;74.13
74635;BME280;63140;56.306;43.984;2022-10-04T22:30:50;99265.03;;;11.74;74.31
74635;BME280;63140;56.306;43.984;2022-10-04T22:33:27;99259.72;;;11.74;74.34
74635;BME280;63140;56.306;43.984;2022-10-04T22:35:58;99255.19;;;11.70;74.38
74635;BME280;63140;56.306;43.984;2022-10-04T22:38:30;99247.22;;;11.67;74.57
74635;BME280;63140;56.306;43.984;2022-10-04T22:40:56;99247.97;;;11.67;74.42
74635;BME280;63140;56.306;43.984;2022-10-04T22:43:23;99244.56;;;11.67;74.47
74635;BME280;63140;56.306;43.984;2022-10-04T22:45:49;99252.19;;;11.65;74.48
74635;BME280;63140;56.306;43.984;2022-10-04T22:48:16;99250.69;;;11.64;74.64
74635;BME280;63140;56.306;43.984;2022-10-04T22:50:42;99233.97;;;11.63;74.77
74635;BME280;63140;56.306;43.984;2022-10-04T22:53:15;99229.06;;;11.62;74.86
74635;BME280;63140;56.306;43.984;2022-10-04T22:55:41;99227.63;;;11.50;75.11
74635;BME280;63140;56.306;43.984;2022-10-04T22:58:12;99231.03;;;11.51;75.20
74635;BME280;63140;56.306;43.984;2022-10-04T23:00:39;99223.44;;;11.53;74.99